createdAt,value
2018-09-20T00:00:55.936Z,90.40
2018-09-20T00:03:24.674Z,90.50
2018-09-20T00:05:53.135Z,90.20
2018-09-20T00:08:21.575Z,90.50
2018-09-20T00:10:50.014Z,90.50
2018-09-20T00:13:18.425Z,90.40
2018-09-20T00:15:46.815Z,90.60
2018-09-20T00:18:15.239Z,90.50
2018-09-20T00:20:43.727Z,90.50
2018-09-20T00:23:12.102Z,90.70
2018-09-20T00:25:40.509Z,90.80
2018-09-20T00:28:08.918Z,91.00
2018-09-20T00:30:37.346Z,91.30
2018-09-20T00:33:05.833Z,91.10
2018-09-20T00:35:34.394Z,91.20
2018-09-20T00:38:02.785Z,91.30
2018-09-20T00:40:31.222Z,91.40
2018-09-20T00:42:59.660Z,91.50
2018-09-20T00:45:28.141Z,91.60
2018-09-20T00:47:56.590Z,91.60
2018-09-20T00:50:25.095Z,91.50
2018-09-20T00:52:53.515Z,91.70
2018-09-20T00:55:22.759Z,91.70
2018-09-20T00:57:51.209Z,91.70
2018-09-20T01:00:19.682Z,91.60
2018-09-20T01:02:48.069Z,91.90
2018-09-20T01:05:16.466Z,91.80
2018-09-20T01:07:44.898Z,91.80
2018-09-20T01:10:13.365Z,92.00
2018-09-20T01:12:41.772Z,92.20
2018-09-20T01:15:10.264Z,91.90
2018-09-20T01:17:38.680Z,92.20
2018-09-20T01:20:07.162Z,92.10
2018-09-20T01:22:35.618Z,91.90
2018-09-20T01:25:04.026Z,91.80
2018-09-20T01:27:32.488Z,92.00
2018-09-20T01:30:00.938Z,92.00
2018-09-20T01:32:29.354Z,91.90
2018-09-20T01:34:57.906Z,92.00
2018-09-20T01:37:26.442Z,92.20
2018-09-20T01:39:54.849Z,92.30
2018-09-20T01:42:23.298Z,92.30
2018-09-20T01:44:52.240Z,92.20
2018-09-20T01:47:20.613Z,92.40
2018-09-20T01:49:49.020Z,92.50
2018-09-20T01:52:17.434Z,92.60
2018-09-20T01:54:45.849Z,92.70
2018-09-20T01:57:14.371Z,92.90
2018-09-20T01:59:42.852Z,92.90
2018-09-20T02:02:11.247Z,93.00
2018-09-20T02:04:39.642Z,92.80
2018-09-20T02:07:08.140Z,93.00
2018-09-20T02:09:36.580Z,93.20
2018-09-20T02:12:05.051Z,93.30
2018-09-20T02:14:33.478Z,93.30
2018-09-20T02:17:01.894Z,93.60
2018-09-20T02:19:30.319Z,93.50
2018-09-20T02:21:58.731Z,93.20
2018-09-20T02:24:27.145Z,93.20
2018-09-20T02:26:55.585Z,93.40
2018-09-20T02:29:25.360Z,93.50
2018-09-20T02:31:53.799Z,93.90
2018-09-20T02:34:22.219Z,93.60
2018-09-20T02:36:50.910Z,93.60
2018-09-20T02:39:19.439Z,93.50
2018-09-20T02:41:48.001Z,93.70
2018-09-20T02:44:16.433Z,93.60
2018-09-20T02:46:44.876Z,93.80
2018-09-20T02:49:13.291Z,93.80
2018-09-20T02:51:41.675Z,93.80
2018-09-20T02:54:10.060Z,93.90
2018-09-20T02:56:38.459Z,94.00
2018-09-20T02:59:06.920Z,94.00
2018-09-20T03:01:35.333Z,94.10
2018-09-20T03:04:03.810Z,94.20
2018-09-20T03:06:32.192Z,94.40
2018-09-20T03:09:00.641Z,94.40
2018-09-20T03:11:29.036Z,94.50
2018-09-20T03:13:58.302Z,94.30
2018-09-20T03:16:26.754Z,94.50
2018-09-20T03:18:55.226Z,94.50
2018-09-20T03:21:23.754Z,94.60
2018-09-20T03:23:52.165Z,94.80
2018-09-20T03:26:20.667Z,94.80
2018-09-20T03:28:49.066Z,95.00
2018-09-20T03:31:17.473Z,95.10
2018-09-20T03:33:45.863Z,95.10
2018-09-20T03:36:14.303Z,95.20
2018-09-20T03:38:42.681Z,95.10
2018-09-20T03:41:11.118Z,95.30
2018-09-20T03:43:39.523Z,95.30
2018-09-20T03:46:07.927Z,95.20
2018-09-20T03:48:36.379Z,95.40
2018-09-20T03:51:04.825Z,95.50
2018-09-20T03:53:33.261Z,95.60
2018-09-20T03:56:01.678Z,95.60
2018-09-20T03:58:30.100Z,95.70
2018-09-20T04:00:58.521Z,95.80
2018-09-20T04:03:26.964Z,95.90
2018-09-20T04:05:55.387Z,96.00
2018-09-20T04:08:23.906Z,96.10
2018-09-20T04:10:52.379Z,96.40
2018-09-20T04:13:20.821Z,96.30
2018-09-20T04:15:49.275Z,96.40
2018-09-20T04:18:17.673Z,96.50
2018-09-20T04:20:46.123Z,96.50
2018-09-20T04:23:14.568Z,96.50
2018-09-20T04:25:43.010Z,96.40
2018-09-20T04:28:11.385Z,96.20
2018-09-20T04:30:39.761Z,96.10
2018-09-20T04:33:08.282Z,96.20
2018-09-20T04:35:36.704Z,96.10
2018-09-20T04:38:05.159Z,96.30
2018-09-20T04:40:34.200Z,96.30
2018-09-20T04:43:02.645Z,96.40
2018-09-20T04:45:31.061Z,96.70
2018-09-20T04:47:59.453Z,96.80
2018-09-20T04:50:27.890Z,96.70
2018-09-20T04:52:56.307Z,96.90
2018-09-20T04:55:24.709Z,96.80
2018-09-20T04:57:53.141Z,96.70
2018-09-20T05:00:21.581Z,96.90
2018-09-20T05:02:50.041Z,96.90
2018-09-20T05:05:18.458Z,97.10
2018-09-20T05:07:46.904Z,97.10
2018-09-20T05:10:15.501Z,97.10
2018-09-20T05:12:45.283Z,97.10
2018-09-20T05:15:13.718Z,97.20
2018-09-20T05:17:42.155Z,97.20
2018-09-20T05:20:10.838Z,97.30
2018-09-20T05:22:39.277Z,97.40
2018-09-20T05:25:07.707Z,97.40
2018-09-20T05:27:36.826Z,97.60
2018-09-20T05:30:05.950Z,97.60
2018-09-20T05:32:34.406Z,97.70
2018-09-20T05:35:02.897Z,97.90
2018-09-20T05:37:31.560Z,97.90
2018-09-20T05:40:00.057Z,98.10
2018-09-20T05:42:28.472Z,98.10
2018-09-20T05:44:56.882Z,98.00
2018-09-20T05:47:25.389Z,98.20
2018-09-20T05:49:53.834Z,98.10
2018-09-20T05:52:22.659Z,98.00
2018-09-20T05:54:51.363Z,98.20
2018-09-20T05:57:19.755Z,98.20
2018-09-20T05:59:48.118Z,98.10
2018-09-20T06:02:16.570Z,97.80
2018-09-20T06:04:45.043Z,97.90
2018-09-20T06:07:13.477Z,97.90
2018-09-20T06:09:41.898Z,98.00
2018-09-20T06:12:10.377Z,97.90
2018-09-20T06:14:38.763Z,97.90
2018-09-20T06:17:07.200Z,97.90
2018-09-20T06:19:35.634Z,97.80
2018-09-20T06:22:04.064Z,97.80
2018-09-20T06:24:32.510Z,97.90
2018-09-20T06:27:01.441Z,97.90
2018-09-20T06:29:29.859Z,97.90
2018-09-20T06:31:58.477Z,97.90
2018-09-20T06:34:26.897Z,97.70
2018-09-20T06:36:55.315Z,97.60
2018-09-20T06:39:23.908Z,97.50
2018-09-20T06:41:52.339Z,97.60
2018-09-20T06:44:20.761Z,97.30
2018-09-20T06:46:49.268Z,97.00
2018-09-20T06:49:17.683Z,97.00
2018-09-20T06:51:46.146Z,96.80
2018-09-20T06:54:14.629Z,96.70
2018-09-20T06:56:43.147Z,96.20
2018-09-20T06:59:11.606Z,96.00
2018-09-20T07:01:40.028Z,95.60
2018-09-20T07:04:08.504Z,95.60
2018-09-20T07:06:36.983Z,95.60
2018-09-20T07:09:09.683Z,95.50
2018-09-20T07:11:38.196Z,95.50
2018-09-20T07:14:06.643Z,95.20
2018-09-20T07:16:35.060Z,95.40
2018-09-20T07:19:03.860Z,95.00
2018-09-20T07:21:32.435Z,95.10
2018-09-20T07:24:01.185Z,94.90
2018-09-20T07:26:29.643Z,94.60
2018-09-20T07:28:58.576Z,94.50
2018-09-20T07:31:27.099Z,94.40
2018-09-20T07:33:55.488Z,94.20
2018-09-20T07:36:24.041Z,94.00
2018-09-20T07:38:52.491Z,93.60
2018-09-20T07:41:20.898Z,93.50
2018-09-20T07:43:49.301Z,93.20
2018-09-20T07:46:17.683Z,93.40
2018-09-20T07:48:46.117Z,93.20
2018-09-20T07:51:14.549Z,93.30
2018-09-20T07:53:43.030Z,93.20
2018-09-20T07:56:11.488Z,93.00
2018-09-20T07:58:39.960Z,93.00
2018-09-20T08:01:08.478Z,92.30
2018-09-20T08:03:36.899Z,92.30
2018-09-20T08:06:05.335Z,92.00
2018-09-20T08:08:40.472Z,91.70
2018-09-20T08:11:08.885Z,92.00
2018-09-20T08:13:37.393Z,92.50
2018-09-20T08:16:06.020Z,91.70
2018-09-20T08:18:34.512Z,91.50
2018-09-20T08:21:02.974Z,91.30
2018-09-20T08:23:31.433Z,91.20
2018-09-20T08:26:00.013Z,91.50
2018-09-20T08:28:35.105Z,91.60
2018-09-20T08:31:03.585Z,91.00
2018-09-20T08:33:32.048Z,91.30
2018-09-20T08:36:00.538Z,91.30
2018-09-20T08:38:28.955Z,90.70
2018-09-20T08:40:57.417Z,90.70
2018-09-20T08:43:25.874Z,91.10
2018-09-20T08:45:54.302Z,91.00
2018-09-20T08:48:22.723Z,90.50
2018-09-20T08:50:51.195Z,90.50
2018-09-20T08:53:19.620Z,90.70
2018-09-20T08:55:48.033Z,90.70
2018-09-20T08:58:16.472Z,90.90
2018-09-20T09:00:44.841Z,91.50
2018-09-20T09:03:13.297Z,91.30
2018-09-20T09:05:41.801Z,91.20
2018-09-20T09:08:10.182Z,90.60
2018-09-20T09:10:39.414Z,90.50
2018-09-20T09:13:07.803Z,87.90
2018-09-20T09:15:36.181Z,87.60
2018-09-20T09:18:04.613Z,87.40
2018-09-20T09:20:33.001Z,88.30
2018-09-20T09:23:01.397Z,88.10
2018-09-20T09:25:29.827Z,86.90
2018-09-20T09:27:58.254Z,86.60
2018-09-20T09:30:26.697Z,86.60
2018-09-20T09:32:55.123Z,86.40
2018-09-20T09:35:23.529Z,84.70
2018-09-20T09:37:51.939Z,85.00
2018-09-20T09:40:20.359Z,85.30
2018-09-20T09:42:48.742Z,85.40
2018-09-20T09:45:17.145Z,85.10
2018-09-20T09:47:45.571Z,84.40
2018-09-20T09:50:14.049Z,84.60
2018-09-20T09:52:42.906Z,83.00
2018-09-20T09:55:11.330Z,81.20
2018-09-20T09:57:39.719Z,82.20
2018-09-20T10:00:08.189Z,81.30
2018-09-20T10:02:36.667Z,79.60
2018-09-20T10:05:05.078Z,79.70
2018-09-20T10:07:33.477Z,80.40
2018-09-20T10:10:01.923Z,80.70
2018-09-20T10:12:30.295Z,81.10
2018-09-20T10:14:58.730Z,81.50
2018-09-20T10:17:27.184Z,79.70
2018-09-20T10:19:55.686Z,79.10
2018-09-20T10:22:24.096Z,77.40
2018-09-20T10:24:52.477Z,75.80
2018-09-20T10:27:20.901Z,75.70
2018-09-20T10:29:49.329Z,75.10
2018-09-20T10:32:18.209Z,75.30
2018-09-20T10:34:46.627Z,74.90
2018-09-20T10:37:15.066Z,76.10
2018-09-20T10:39:43.519Z,75.70
2018-09-20T10:42:12.006Z,76.80
2018-09-20T10:44:40.430Z,75.80
2018-09-20T10:47:08.847Z,75.20
2018-09-20T10:49:37.256Z,74.60
2018-09-20T10:52:06.422Z,73.60
2018-09-20T10:54:34.843Z,72.80
2018-09-20T10:57:03.236Z,71.80
2018-09-20T10:59:31.649Z,71.30
2018-09-20T11:02:00.048Z,71.10
2018-09-20T11:04:28.484Z,70.00
2018-09-20T11:06:56.970Z,70.10
2018-09-20T11:09:25.430Z,69.60
2018-09-20T11:11:54.037Z,71.50
2018-09-20T11:14:22.459Z,70.00
2018-09-20T11:16:50.848Z,70.90
2018-09-20T11:19:19.270Z,69.40
2018-09-20T11:21:47.734Z,69.90
2018-09-20T11:24:16.221Z,69.20
2018-09-20T11:26:44.659Z,68.50
2018-09-20T11:29:13.069Z,68.30
2018-09-20T11:31:41.461Z,66.10
2018-09-20T11:34:10.199Z,65.70
2018-09-20T11:36:38.649Z,66.90
2018-09-20T11:39:09.239Z,65.90
2018-09-20T11:41:37.653Z,65.60
2018-09-20T11:44:06.123Z,64.10
2018-09-20T11:46:34.606Z,63.30
2018-09-20T11:49:02.988Z,64.90
2018-09-20T11:51:31.452Z,63.80
2018-09-20T11:53:59.979Z,63.60
2018-09-20T11:56:28.398Z,65.40
2018-09-20T11:58:57.472Z,65.30
2018-09-20T12:01:25.892Z,66.20
2018-09-20T12:03:54.396Z,65.10
2018-09-20T12:06:22.903Z,64.90
2018-09-20T12:08:51.360Z,63.30
2018-09-20T12:11:19.775Z,63.00
2018-09-20T12:13:48.223Z,63.00
2018-09-20T12:16:16.650Z,60.40
2018-09-20T12:18:45.107Z,60.70
2018-09-20T12:21:14.467Z,61.60
2018-09-20T12:23:42.890Z,59.80
2018-09-20T12:26:11.298Z,59.70
2018-09-20T12:28:39.736Z,60.40
2018-09-20T12:31:08.221Z,59.60
2018-09-20T12:33:36.660Z,60.00
2018-09-20T12:36:05.145Z,59.40
2018-09-20T12:38:33.619Z,59.20
2018-09-20T12:41:02.085Z,59.50
2018-09-20T12:43:30.476Z,59.40
2018-09-20T12:45:58.897Z,59.20
2018-09-20T12:48:27.350Z,58.70
2018-09-20T12:50:55.759Z,59.40
2018-09-20T12:53:24.855Z,58.20
2018-09-20T12:55:53.265Z,57.90
2018-09-20T12:58:25.965Z,58.20
2018-09-20T13:00:54.398Z,59.20
2018-09-20T13:03:22.874Z,59.60
2018-09-20T13:05:51.279Z,59.50
2018-09-20T13:08:19.987Z,59.20
2018-09-20T13:10:48.395Z,58.70
2018-09-20T13:13:16.827Z,58.30
2018-09-20T13:15:45.327Z,58.00
2018-09-20T13:18:13.743Z,57.80
2018-09-20T13:20:42.161Z,58.20
2018-09-20T13:23:11.118Z,57.20
2018-09-20T13:25:39.607Z,57.10
2018-09-20T13:28:08.484Z,57.80
2018-09-20T13:30:36.922Z,57.10
2018-09-20T13:33:05.418Z,56.50
2018-09-20T13:35:33.860Z,56.80
2018-09-20T13:38:02.379Z,57.70
2018-09-20T13:40:30.914Z,58.20
2018-09-20T13:42:59.442Z,57.00
2018-09-20T13:45:27.851Z,57.10
2018-09-20T13:47:56.329Z,57.80
2018-09-20T13:50:24.775Z,56.90
2018-09-20T13:52:53.172Z,57.10
2018-09-20T13:55:21.586Z,57.20
2018-09-20T13:57:49.977Z,55.50
2018-09-20T14:00:18.382Z,56.40
2018-09-20T14:02:46.829Z,56.60
2018-09-20T14:05:15.282Z,56.30
2018-09-20T14:07:43.696Z,56.80
2018-09-20T14:10:12.120Z,57.40
2018-09-20T14:12:40.497Z,57.60
2018-09-20T14:15:08.946Z,57.60
2018-09-20T14:17:37.745Z,57.70
2018-09-20T14:20:06.186Z,57.10
2018-09-20T14:22:34.610Z,56.90
2018-09-20T14:25:03.110Z,57.40
2018-09-20T14:27:31.494Z,56.70
2018-09-20T14:29:59.915Z,56.80
2018-09-20T14:32:28.396Z,57.80
2018-09-20T14:34:56.880Z,56.80
2018-09-20T14:37:25.302Z,57.40
2018-09-20T14:39:53.877Z,57.70
2018-09-20T14:42:22.275Z,57.40
2018-09-20T14:44:50.695Z,57.30
2018-09-20T14:47:19.105Z,58.10
2018-09-20T14:49:47.515Z,57.40
2018-09-20T14:52:16.112Z,57.90
2018-09-20T14:54:44.525Z,57.80
2018-09-20T14:57:12.933Z,58.20
2018-09-20T14:59:41.341Z,58.10
2018-09-20T15:02:09.832Z,58.40
2018-09-20T15:04:38.329Z,58.30
2018-09-20T15:07:06.851Z,58.40
2018-09-20T15:09:35.272Z,59.00
2018-09-20T15:12:03.713Z,58.60
2018-09-20T15:14:32.281Z,58.60
2018-09-20T15:17:00.693Z,58.70
2018-09-20T15:19:29.095Z,59.70
2018-09-20T15:21:57.512Z,59.10
2018-09-20T15:24:25.987Z,59.50
2018-09-20T15:26:54.540Z,59.90
2018-09-20T15:29:22.935Z,60.40
2018-09-20T15:31:51.367Z,59.50
2018-09-20T15:34:19.806Z,60.00
2018-09-20T15:36:48.267Z,60.50
2018-09-20T15:39:16.718Z,60.30
2018-09-20T15:41:45.130Z,60.50
2018-09-20T15:44:13.506Z,60.00
2018-09-20T15:46:42.056Z,60.90
2018-09-20T15:49:10.461Z,60.70
2018-09-20T15:51:38.872Z,60.80
2018-09-20T15:54:07.322Z,61.00
2018-09-20T15:56:35.760Z,61.10
2018-09-20T15:59:04.295Z,61.20
2018-09-20T16:01:32.710Z,61.70
2018-09-20T16:04:01.133Z,61.50
2018-09-20T16:06:30.149Z,61.60
2018-09-20T16:08:58.579Z,61.60
2018-09-20T16:11:26.987Z,62.60
2018-09-20T16:13:55.375Z,62.70
2018-09-20T16:16:24.610Z,62.80
2018-09-20T16:18:52.998Z,62.70
2018-09-20T16:21:21.388Z,63.10
2018-09-20T16:23:49.901Z,63.10
2018-09-20T16:26:18.315Z,63.10
2018-09-20T16:29:12.475Z,63.60
2018-09-20T16:36:18.139Z,64.20
2018-09-20T16:39:22.751Z,63.90
2018-09-20T16:41:53.702Z,64.20
2018-09-20T16:44:55.125Z,64.70
2018-09-20T16:47:23.520Z,64.80
2018-09-20T16:49:52.037Z,64.40
2018-09-20T16:52:20.443Z,65.00
2018-09-20T16:54:48.829Z,65.40
2018-09-20T16:57:17.240Z,65.50
2018-09-20T16:59:45.670Z,66.00
2018-09-20T17:02:14.085Z,66.20
2018-09-20T17:04:42.533Z,66.40
2018-09-20T17:07:11.040Z,66.90
2018-09-20T17:09:39.328Z,67.30
2018-09-20T17:12:07.809Z,67.20
2018-09-20T17:14:36.303Z,67.40
2018-09-20T17:17:04.808Z,67.80
2018-09-20T17:19:33.439Z,67.80
2018-09-20T17:22:01.913Z,68.00
2018-09-20T17:24:30.318Z,68.40
2018-09-20T17:26:58.729Z,68.80
2018-09-20T17:29:27.174Z,68.60
2018-09-20T17:31:55.563Z,68.90
2018-09-20T17:34:24.316Z,69.60
2018-09-20T17:36:53.473Z,69.60
2018-09-20T17:39:22.445Z,70.30
2018-09-20T17:41:52.544Z,69.70
2018-09-20T17:44:21.037Z,71.30
2018-09-20T17:46:49.595Z,69.70
2018-09-20T17:49:18.052Z,69.90
2018-09-20T17:51:46.837Z,69.80
2018-09-20T17:54:15.540Z,70.40
2018-09-20T17:56:44.917Z,70.40
2018-09-20T17:59:14.165Z,70.70
2018-09-20T18:01:42.569Z,70.70
2018-09-20T18:04:11.051Z,70.90
2018-09-20T18:06:39.494Z,71.50
2018-09-20T18:09:09.183Z,71.80
2018-09-20T18:11:37.585Z,71.60
2018-09-20T18:14:06.889Z,71.60
2018-09-20T18:16:35.324Z,72.10
2018-09-20T18:19:03.748Z,71.80
2018-09-20T18:21:32.246Z,72.00
2018-09-20T18:24:00.739Z,72.10
2018-09-20T18:26:29.249Z,72.30
2018-09-20T18:28:57.731Z,72.40
2018-09-20T18:31:26.265Z,72.60
2018-09-20T18:33:54.703Z,72.70
2018-09-20T18:36:23.233Z,73.00
2018-09-20T18:38:51.639Z,73.20
2018-09-20T18:41:20.146Z,74.10
2018-09-20T18:43:48.756Z,73.50
2018-09-20T18:46:17.184Z,74.00
2018-09-20T18:48:45.653Z,74.10
2018-09-20T18:51:14.197Z,73.90
2018-09-20T18:53:42.684Z,74.60
2018-09-20T18:56:11.105Z,74.50
2018-09-20T18:58:39.539Z,75.10
2018-09-20T19:01:07.988Z,74.70
2018-09-20T19:03:36.373Z,74.80
2018-09-20T19:06:04.920Z,75.10
2018-09-20T19:08:33.331Z,75.00
2018-09-20T19:11:01.795Z,74.90
2018-09-20T19:13:30.279Z,74.60
2018-09-20T19:15:58.765Z,74.90
2018-09-20T19:18:27.276Z,75.00
2018-09-20T19:20:55.707Z,75.30
2018-09-20T19:23:24.219Z,75.00
2018-09-20T19:25:52.687Z,75.00
2018-09-20T19:28:21.084Z,75.10
2018-09-20T19:30:49.535Z,75.40
2018-09-20T19:33:18.183Z,75.00
2018-09-20T19:35:46.733Z,75.00
2018-09-20T19:38:15.155Z,75.00
2018-09-20T19:40:47.522Z,75.00
2018-09-20T19:43:16.500Z,76.00
2018-09-20T19:45:44.901Z,75.00
2018-09-20T19:48:13.335Z,74.70
2018-09-20T19:50:42.202Z,75.00
2018-09-20T19:53:11.573Z,75.00
2018-09-20T19:55:39.976Z,75.20
2018-09-20T19:58:08.382Z,75.10
2018-09-20T20:00:36.826Z,75.30
2018-09-20T20:03:05.239Z,75.50
2018-09-20T20:05:33.659Z,76.30
2018-09-20T20:08:02.886Z,75.70
2018-09-20T20:10:31.444Z,75.70
2018-09-20T20:13:00.885Z,75.30
2018-09-20T20:15:33.730Z,75.80
2018-09-20T20:18:04.003Z,75.80
2018-09-20T20:20:32.613Z,76.00
2018-09-20T20:23:01.080Z,75.60
2018-09-20T20:25:29.575Z,75.30
2018-09-20T20:27:57.988Z,75.00
2018-09-20T20:30:26.592Z,75.30
2018-09-20T20:32:54.980Z,75.30
2018-09-20T20:35:23.522Z,75.10
2018-09-20T20:37:52.020Z,75.00
2018-09-20T20:40:20.562Z,74.80
2018-09-20T20:42:49.089Z,75.00
2018-09-20T20:45:17.606Z,74.90
2018-09-20T20:47:46.064Z,74.80
2018-09-20T20:50:15.045Z,75.50
2018-09-20T20:52:43.542Z,75.40
2018-09-20T20:55:12.103Z,74.70
2018-09-20T20:57:40.571Z,74.80
2018-09-20T21:00:09.002Z,74.90
2018-09-20T21:02:37.455Z,74.90
2018-09-20T21:05:06.663Z,75.00
2018-09-20T21:07:35.081Z,75.00
2018-09-20T21:10:03.717Z,75.00
2018-09-20T21:12:32.219Z,75.20
2018-09-20T21:15:00.691Z,75.30
2018-09-20T21:17:29.084Z,75.30
2018-09-20T21:19:57.544Z,75.30
2018-09-20T21:22:25.985Z,75.50
2018-09-20T21:24:54.382Z,75.60
2018-09-20T21:27:22.896Z,75.60
2018-09-20T21:29:51.286Z,75.80
2018-09-20T21:32:19.687Z,75.60
2018-09-20T21:34:48.114Z,75.80
2018-09-20T21:37:16.541Z,76.30
2018-09-20T21:39:45.013Z,76.10
2018-09-20T21:42:13.469Z,76.30
2018-09-20T21:44:41.890Z,76.10
2018-09-20T21:47:10.339Z,76.30
2018-09-20T21:49:38.724Z,76.10
2018-09-20T21:52:07.286Z,76.30
2018-09-20T21:54:35.706Z,76.60
2018-09-20T21:57:04.184Z,76.80
2018-09-20T21:59:32.559Z,76.60
2018-09-20T22:02:01.785Z,76.90
2018-09-20T22:04:30.424Z,77.00
2018-09-20T22:06:59.471Z,77.00
2018-09-20T22:09:28.155Z,77.40
2018-09-20T22:11:56.586Z,77.70
2018-09-20T22:14:25.005Z,77.50
2018-09-20T22:16:53.433Z,77.50
2018-09-20T22:19:21.870Z,77.90
2018-09-20T22:21:50.550Z,77.90
2018-09-20T22:24:18.953Z,78.00
2018-09-20T22:26:47.455Z,78.00
2018-09-20T22:29:16.378Z,78.20
2018-09-20T22:31:44.807Z,78.50
2018-09-20T22:34:13.229Z,78.50
2018-09-20T22:36:41.643Z,78.70
2018-09-20T22:39:11.069Z,79.00
2018-09-20T22:41:39.474Z,79.00
2018-09-20T22:44:08.714Z,79.00
2018-09-20T22:46:37.122Z,79.40
2018-09-20T22:49:05.564Z,79.60
2018-09-20T22:51:34.595Z,79.70
2018-09-20T22:54:03.059Z,79.90
2018-09-20T22:56:31.555Z,79.90
2018-09-20T22:58:59.979Z,80.20
2018-09-20T23:01:28.393Z,80.40
2018-09-20T23:03:56.799Z,80.60
2018-09-20T23:06:25.200Z,80.60
2018-09-20T23:08:53.775Z,80.90
2018-09-20T23:11:22.282Z,81.00
2018-09-20T23:13:50.679Z,80.90
2018-09-20T23:16:19.150Z,81.00
2018-09-20T23:18:47.742Z,81.00
2018-09-20T23:21:16.168Z,80.80
2018-09-20T23:23:44.612Z,81.20
2018-09-20T23:26:13.059Z,81.20
2018-09-20T23:28:41.465Z,81.50
2018-09-20T23:31:09.908Z,81.50
2018-09-20T23:33:38.319Z,82.50
2018-09-20T23:36:06.774Z,81.60
2018-09-20T23:38:35.201Z,81.70
2018-09-20T23:41:03.659Z,81.80
2018-09-20T23:43:32.159Z,81.80
2018-09-20T23:46:00.608Z,81.90
2018-09-20T23:48:29.051Z,81.90
2018-09-20T23:50:57.541Z,81.90
2018-09-20T23:53:25.959Z,82.10
2018-09-20T23:55:54.439Z,82.30
2018-09-20T23:58:22.817Z,82.00
